createdAt,value
2018-03-15T00:01:14.908Z,59.10
2018-03-15T00:03:41.145Z,59.40
2018-03-15T00:06:08.064Z,59.00
2018-03-15T00:08:34.310Z,59.00
2018-03-15T00:11:00.498Z,58.30
2018-03-15T00:13:26.724Z,58.40
2018-03-15T00:15:52.949Z,58.50
2018-03-15T00:18:19.221Z,58.70
2018-03-15T00:20:45.423Z,58.60
2018-03-15T00:23:11.660Z,58.30
2018-03-15T00:25:37.896Z,58.30
2018-03-15T00:28:04.069Z,58.40
2018-03-15T00:30:30.307Z,59.30
2018-03-15T00:32:56.570Z,59.20
2018-03-15T00:35:22.758Z,60.50
2018-03-15T00:37:48.987Z,59.80
2018-03-15T00:40:15.213Z,59.20
2018-03-15T00:42:41.470Z,59.90
2018-03-15T00:45:07.713Z,59.90
2018-03-15T00:47:33.920Z,59.40
2018-03-15T00:50:00.138Z,59.30
2018-03-15T00:52:26.334Z,59.90
2018-03-15T00:54:52.584Z,59.60
2018-03-15T00:57:18.822Z,59.90
2018-03-15T00:59:45.013Z,59.80
2018-03-15T01:02:12.029Z,59.50
2018-03-15T01:04:38.204Z,59.40
2018-03-15T01:07:04.401Z,59.80
2018-03-15T01:09:30.605Z,59.40
2018-03-15T01:11:56.852Z,59.30
2018-03-15T01:14:23.088Z,59.20
2018-03-15T01:16:50.029Z,58.90
2018-03-15T01:19:16.274Z,58.90
2018-03-15T01:21:43.252Z,58.80
2018-03-15T01:24:09.449Z,58.70
2018-03-15T01:26:36.447Z,58.90
2018-03-15T01:29:02.741Z,58.80
2018-03-15T01:31:28.913Z,58.80
2018-03-15T01:33:55.105Z,58.50
2018-03-15T01:36:21.289Z,58.40
2018-03-15T01:38:47.496Z,58.40
2018-03-15T01:41:13.703Z,59.20
2018-03-15T01:43:39.962Z,58.60
2018-03-15T01:46:06.195Z,58.80
2018-03-15T01:48:32.424Z,59.00
2018-03-15T01:50:58.693Z,58.80
2018-03-15T01:53:24.892Z,59.40
2018-03-15T01:55:51.800Z,59.40
2018-03-15T01:58:18.010Z,59.10
2018-03-15T02:00:44.228Z,59.40
2018-03-15T02:03:10.437Z,59.20
2018-03-15T02:05:36.664Z,59.20
2018-03-15T02:08:02.905Z,60.00
2018-03-15T02:10:29.160Z,59.20
2018-03-15T02:12:55.368Z,59.20
2018-03-15T02:15:21.569Z,59.60
2018-03-15T02:17:48.517Z,59.60
2018-03-15T02:20:15.506Z,59.60
2018-03-15T02:22:41.738Z,59.50
2018-03-15T02:25:07.973Z,60.50
2018-03-15T02:27:34.193Z,60.10
2018-03-15T02:30:00.409Z,59.60
2018-03-15T02:32:26.627Z,59.70
2018-03-15T02:34:52.830Z,59.30
2018-03-15T02:37:19.794Z,60.10
2018-03-15T02:39:46.012Z,60.00
2018-03-15T02:42:12.189Z,59.80
2018-03-15T02:44:38.389Z,60.00
2018-03-15T02:47:04.592Z,59.80
2018-03-15T02:49:30.814Z,59.90
2018-03-15T02:51:57.756Z,59.50
2018-03-15T02:54:24.750Z,59.40
2018-03-15T02:56:50.949Z,59.40
2018-03-15T02:59:17.225Z,60.00
2018-03-15T03:01:43.462Z,59.70
2018-03-15T03:04:09.682Z,60.10
2018-03-15T03:06:35.953Z,59.50
2018-03-15T03:09:02.276Z,59.80
2018-03-15T03:11:29.260Z,59.50
2018-03-15T03:13:55.471Z,59.50
2018-03-15T03:16:21.703Z,59.30
2018-03-15T03:18:47.909Z,58.90
2018-03-15T03:21:14.109Z,59.10
2018-03-15T03:23:40.328Z,59.50
2018-03-15T03:26:06.547Z,59.60
2018-03-15T03:28:32.798Z,59.70
2018-03-15T03:30:59.793Z,60.10
2018-03-15T03:33:26.052Z,60.10
2018-03-15T03:35:52.281Z,60.10
2018-03-15T03:38:18.512Z,59.60
2018-03-15T03:40:44.748Z,60.30
2018-03-15T03:43:10.921Z,60.00
2018-03-15T03:45:37.173Z,60.00
2018-03-15T03:48:03.420Z,60.30
2018-03-15T03:50:29.642Z,60.10
2018-03-15T03:52:55.863Z,60.50
2018-03-15T03:55:22.111Z,60.10
2018-03-15T03:57:48.346Z,60.20
2018-03-15T04:00:14.542Z,60.20
2018-03-15T04:02:40.902Z,60.40
2018-03-15T04:05:07.834Z,60.80
2018-03-15T04:07:34.024Z,60.80
2018-03-15T04:10:00.276Z,60.40
2018-03-15T04:12:26.544Z,60.70
2018-03-15T04:14:52.734Z,60.80
2018-03-15T04:17:18.955Z,59.60
2018-03-15T04:19:45.189Z,59.80
2018-03-15T04:22:11.386Z,60.30
2018-03-15T04:24:37.635Z,60.00
2018-03-15T04:27:03.852Z,60.10
2018-03-15T04:29:30.086Z,60.60
2018-03-15T04:31:56.251Z,61.00
2018-03-15T04:34:22.500Z,60.80
2018-03-15T04:36:48.749Z,61.20
2018-03-15T04:39:15.072Z,60.70
2018-03-15T04:41:42.018Z,61.00
2018-03-15T04:44:08.204Z,60.90
2018-03-15T04:46:34.445Z,60.90
2018-03-15T04:49:00.637Z,61.40
2018-03-15T04:51:26.831Z,61.20
2018-03-15T04:53:53.044Z,61.10
2018-03-15T04:56:19.968Z,60.90
2018-03-15T04:58:46.205Z,60.90
2018-03-15T05:01:12.479Z,60.80
2018-03-15T05:03:38.759Z,61.00
2018-03-15T05:06:04.974Z,61.40
2018-03-15T05:08:31.221Z,61.00
2018-03-15T05:10:58.155Z,63.10
2018-03-15T05:13:25.144Z,62.60
2018-03-15T05:15:51.353Z,62.60
2018-03-15T05:18:18.369Z,62.60
2018-03-15T05:20:44.574Z,62.60
2018-03-15T05:23:10.813Z,62.30
2018-03-15T05:25:37.068Z,62.50
2018-03-15T05:28:04.000Z,64.00
2018-03-15T05:30:30.258Z,63.30
2018-03-15T05:32:57.185Z,63.20
2018-03-15T05:35:23.381Z,63.20
2018-03-15T05:37:49.608Z,63.00
2018-03-15T05:40:15.800Z,62.40
2018-03-15T05:42:42.018Z,63.00
2018-03-15T05:45:08.980Z,63.80
2018-03-15T05:47:35.148Z,63.70
2018-03-15T05:50:01.355Z,64.00
2018-03-15T05:52:27.575Z,64.10
2018-03-15T05:54:53.804Z,64.30
2018-03-15T05:57:19.968Z,63.60
2018-03-15T05:59:46.229Z,64.50
2018-03-15T06:02:13.168Z,63.90
2018-03-15T06:04:40.125Z,63.90
2018-03-15T06:07:06.297Z,63.90
2018-03-15T06:09:32.546Z,63.50
2018-03-15T06:11:58.728Z,64.60
2018-03-15T06:14:24.958Z,64.80
2018-03-15T06:16:51.176Z,65.40
2018-03-15T06:19:17.348Z,66.00
2018-03-15T06:21:43.580Z,65.10
2018-03-15T06:24:09.832Z,65.80
2018-03-15T06:26:36.752Z,65.70
2018-03-15T06:29:02.943Z,65.70
2018-03-15T06:31:29.237Z,65.40
2018-03-15T06:33:56.190Z,66.20
2018-03-15T06:36:22.361Z,66.20
2018-03-15T06:38:48.597Z,66.10
2018-03-15T06:41:14.777Z,65.70
2018-03-15T06:43:40.964Z,66.80
2018-03-15T06:46:07.462Z,66.50
2018-03-15T06:48:33.692Z,66.70
2018-03-15T06:50:59.851Z,66.70
2018-03-15T06:53:26.037Z,66.10
2018-03-15T06:55:52.256Z,66.30
2018-03-15T06:58:18.457Z,66.50
2018-03-15T07:00:45.384Z,66.40
2018-03-15T07:03:11.562Z,66.30
2018-03-15T07:05:37.818Z,66.30
2018-03-15T07:08:04.066Z,66.50
2018-03-15T07:10:30.378Z,66.30
2018-03-15T07:12:56.549Z,66.50
2018-03-15T07:15:23.500Z,67.10
2018-03-15T07:17:50.446Z,66.80
2018-03-15T07:20:16.636Z,66.80
2018-03-15T07:22:42.903Z,67.20
2018-03-15T07:25:09.035Z,67.60
2018-03-15T07:27:35.257Z,67.90
2018-03-15T07:30:01.566Z,68.80
2018-03-15T07:32:28.603Z,69.90
2018-03-15T07:34:54.800Z,69.80
2018-03-15T07:37:21.027Z,70.60
2018-03-15T07:39:47.322Z,69.80
2018-03-15T07:42:13.535Z,69.50
2018-03-15T07:44:40.496Z,69.50
2018-03-15T07:47:06.741Z,69.50
2018-03-15T07:49:33.002Z,70.50
2018-03-15T07:51:59.237Z,71.40
2018-03-15T07:54:25.467Z,70.70
2018-03-15T07:56:51.652Z,71.50
2018-03-15T07:59:17.857Z,71.20
2018-03-15T08:01:44.805Z,70.90
2018-03-15T08:04:11.016Z,70.90
2018-03-15T08:06:37.950Z,70.40
2018-03-15T08:09:04.182Z,70.30
2018-03-15T08:11:30.517Z,70.90
2018-03-15T08:13:56.709Z,70.10
2018-03-15T08:16:22.948Z,70.30
2018-03-15T08:18:49.130Z,70.40
2018-03-15T08:21:15.342Z,70.40
2018-03-15T08:23:42.325Z,70.00
2018-03-15T08:26:08.552Z,69.90
2018-03-15T08:28:34.791Z,70.50
2018-03-15T08:31:00.997Z,70.90
2018-03-15T08:33:27.218Z,70.90
2018-03-15T08:35:53.474Z,70.80
2018-03-15T08:38:19.685Z,71.00
2018-03-15T08:40:45.889Z,70.90
2018-03-15T08:43:12.096Z,71.30
2018-03-15T08:45:39.082Z,71.30
2018-03-15T08:48:05.325Z,71.30
2018-03-15T08:50:31.516Z,71.40
2018-03-15T08:52:57.730Z,71.80
2018-03-15T08:55:24.670Z,71.80
2018-03-15T08:57:51.654Z,72.60
2018-03-15T09:00:17.871Z,72.60
2018-03-15T09:02:44.097Z,71.30
2018-03-15T09:05:10.322Z,71.70
2018-03-15T09:07:36.608Z,71.20
2018-03-15T09:10:04.151Z,71.60
2018-03-15T09:12:30.731Z,71.90
2018-03-15T09:14:57.715Z,72.70
2018-03-15T09:17:23.913Z,72.70
2018-03-15T09:19:50.126Z,73.00
2018-03-15T09:22:17.146Z,72.40
2018-03-15T09:24:43.454Z,72.40
2018-03-15T09:27:09.660Z,72.60
2018-03-15T09:29:35.914Z,72.30
2018-03-15T09:32:02.214Z,71.80
2018-03-15T09:34:28.488Z,71.70
2018-03-15T09:36:54.706Z,71.60
2018-03-15T09:39:20.928Z,71.90
2018-03-15T09:41:48.128Z,71.70
2018-03-15T09:44:14.366Z,70.70
2018-03-15T09:46:41.680Z,70.30
2018-03-15T09:49:08.662Z,69.90
2018-03-15T09:51:34.867Z,69.90
2018-03-15T09:54:01.894Z,70.10
2018-03-15T09:56:28.112Z,70.90
2018-03-15T09:58:54.401Z,69.90
2018-03-15T10:01:20.632Z,70.40
2018-03-15T10:03:46.804Z,69.80
2018-03-15T10:06:13.097Z,69.90
2018-03-15T10:08:39.304Z,69.80
2018-03-15T10:11:05.594Z,70.00
2018-03-15T10:13:31.842Z,70.60
2018-03-15T10:15:58.846Z,69.70
2018-03-15T10:18:27.684Z,69.70
2018-03-15T10:20:54.018Z,69.80
2018-03-15T10:23:21.760Z,69.70
2018-03-15T10:25:47.990Z,68.70
2018-03-15T10:28:14.951Z,69.20
2018-03-15T10:30:41.888Z,69.10
2018-03-15T10:33:15.012Z,69.00
2018-03-15T10:35:41.209Z,69.00
2018-03-15T10:38:08.189Z,68.50
2018-03-15T10:40:34.380Z,68.50
2018-03-15T10:43:01.325Z,68.10
2018-03-15T10:45:28.364Z,67.70
2018-03-15T10:47:55.340Z,68.10
2018-03-15T10:50:21.559Z,68.00
2018-03-15T10:52:47.788Z,68.90
2018-03-15T10:55:14.036Z,70.00
2018-03-15T10:57:40.319Z,70.10
2018-03-15T11:00:07.291Z,70.00
2018-03-15T11:02:40.415Z,69.80
2018-03-15T11:05:14.052Z,69.60
2018-03-15T11:07:40.291Z,69.40
2018-03-15T11:10:07.314Z,70.40
2018-03-15T11:12:35.149Z,70.10
2018-03-15T11:15:01.421Z,69.90
2018-03-15T11:17:27.623Z,70.30
2018-03-15T11:19:53.858Z,70.70
2018-03-15T11:22:20.124Z,70.80
2018-03-15T11:24:46.301Z,70.70
2018-03-15T11:27:12.541Z,71.00
2018-03-15T11:29:38.776Z,71.50
2018-03-15T11:32:04.994Z,71.10
2018-03-15T11:34:31.279Z,70.40
2018-03-15T11:36:57.545Z,70.20
2018-03-15T11:39:23.786Z,69.80
2018-03-15T11:41:50.059Z,69.50
2018-03-15T11:44:17.036Z,70.30
2018-03-15T11:46:43.268Z,70.50
2018-03-15T11:49:09.562Z,70.20
2018-03-15T11:51:35.773Z,70.00
2018-03-15T11:54:02.750Z,69.80
2018-03-15T11:56:29.018Z,69.70
2018-03-15T11:58:55.251Z,70.50
2018-03-15T12:01:21.529Z,69.50
2018-03-15T12:03:47.772Z,69.30
2018-03-15T12:06:14.062Z,69.40
2018-03-15T12:08:41.024Z,69.70
2018-03-15T12:11:07.247Z,69.70
2018-03-15T12:13:33.454Z,70.70
2018-03-15T12:15:59.704Z,69.90
2018-03-15T12:18:25.944Z,69.70
2018-03-15T12:20:52.914Z,71.10
2018-03-15T12:23:19.157Z,70.90
2018-03-15T12:25:45.473Z,72.60
2018-03-15T12:28:11.720Z,73.10
2018-03-15T12:30:37.953Z,71.80
2018-03-15T12:33:04.132Z,71.30
2018-03-15T12:35:31.109Z,70.40
2018-03-15T12:37:57.351Z,70.30
2018-03-15T12:40:23.650Z,71.30
2018-03-15T12:42:49.824Z,71.20
2018-03-15T12:45:16.020Z,72.20
2018-03-15T12:47:42.198Z,71.10
2018-03-15T12:50:08.426Z,71.00
2018-03-15T12:52:34.726Z,72.50
2018-03-15T12:55:00.966Z,72.50
2018-03-15T12:57:27.262Z,72.90
2018-03-15T12:59:54.186Z,72.80
2018-03-15T13:02:20.426Z,72.80
2018-03-15T13:04:46.652Z,72.90
2018-03-15T13:07:12.903Z,73.20
2018-03-15T13:09:39.820Z,73.60
2018-03-15T13:12:06.021Z,73.50
2018-03-15T13:14:32.978Z,74.10
2018-03-15T13:16:59.921Z,73.80
2018-03-15T13:19:26.822Z,74.20
2018-03-15T13:21:53.066Z,74.20
2018-03-15T13:24:19.411Z,74.50
2018-03-15T13:26:45.622Z,74.90
2018-03-15T13:29:11.840Z,75.00
2018-03-15T13:31:38.048Z,75.90
2018-03-15T13:34:04.232Z,75.90
2018-03-15T13:36:31.177Z,75.60
2018-03-15T13:38:58.156Z,75.60
2018-03-15T13:41:24.434Z,75.40
2018-03-15T13:43:50.690Z,75.30
2018-03-15T13:46:16.932Z,75.20
2018-03-15T13:48:43.152Z,75.30
2018-03-15T13:51:09.383Z,75.50
2018-03-15T13:53:35.569Z,75.60
2018-03-15T13:56:01.769Z,75.70
2018-03-15T13:58:28.001Z,75.80
2018-03-15T14:00:54.277Z,76.10
2018-03-15T14:03:21.199Z,75.80
2018-03-15T14:05:47.407Z,75.60
2018-03-15T14:08:13.631Z,75.60
2018-03-15T14:10:39.841Z,75.60
2018-03-15T14:13:06.030Z,75.40
2018-03-15T14:15:32.995Z,74.90
2018-03-15T14:17:59.201Z,74.80
2018-03-15T14:20:26.157Z,75.80
2018-03-15T14:22:53.118Z,76.40
2018-03-15T14:25:19.385Z,76.40
2018-03-15T14:27:45.613Z,77.20
2018-03-15T14:30:11.853Z,78.10
2018-03-15T14:32:38.076Z,80.80
2018-03-15T14:35:04.308Z,79.60
2018-03-15T14:37:30.572Z,78.20
2018-03-15T14:39:56.764Z,78.30
2018-03-15T14:42:23.001Z,77.10
2018-03-15T14:44:49.240Z,76.60
2018-03-15T14:47:16.206Z,78.50
2018-03-15T14:49:42.424Z,78.40
2018-03-15T14:52:09.348Z,78.80
2018-03-15T14:54:35.521Z,78.70
2018-03-15T14:57:01.724Z,78.40
2018-03-15T14:59:28.741Z,79.10
2018-03-15T15:01:56.267Z,79.10
2018-03-15T15:04:23.652Z,79.30
2018-03-15T15:06:51.031Z,80.30
2018-03-15T15:09:18.522Z,80.20
2018-03-15T15:11:46.907Z,78.60
2018-03-15T15:14:14.617Z,78.50
2018-03-15T15:16:42.220Z,77.60
2018-03-15T15:19:10.640Z,78.30
2018-03-15T15:21:37.265Z,78.30
2018-03-15T15:24:06.647Z,77.80
2018-03-15T15:26:35.028Z,77.60
2018-03-15T15:29:02.350Z,77.60
2018-03-15T15:31:29.520Z,78.20
2018-03-15T15:33:56.965Z,77.90
2018-03-15T15:36:24.234Z,77.60
2018-03-15T15:38:51.759Z,78.90
2018-03-15T15:41:19.214Z,79.50
2018-03-15T15:43:46.806Z,79.20
2018-03-15T15:46:14.130Z,78.60
2018-03-15T15:48:41.238Z,78.30
2018-03-15T15:51:08.522Z,77.80
2018-03-15T15:53:35.974Z,77.30
2018-03-15T15:56:03.697Z,77.10
2018-03-15T15:58:31.301Z,77.20
2018-03-15T16:00:58.852Z,76.30
2018-03-15T16:03:26.497Z,76.10
2018-03-15T16:05:53.899Z,76.20
2018-03-15T16:08:21.338Z,76.00
2018-03-15T16:10:48.848Z,75.60
2018-03-15T16:13:17.265Z,74.80
2018-03-15T16:15:44.779Z,74.80
2018-03-15T16:18:11.673Z,74.60
2018-03-15T16:20:39.172Z,74.30
2018-03-15T16:23:06.601Z,74.10
2018-03-15T16:25:34.010Z,74.30
2018-03-15T16:28:01.738Z,74.40
2018-03-15T16:30:29.340Z,74.40
2018-03-15T16:32:56.555Z,74.10
2018-03-15T16:35:23.968Z,73.40
2018-03-15T16:37:51.219Z,73.50
2018-03-15T16:40:18.711Z,73.00
2018-03-15T16:42:46.396Z,72.90
2018-03-15T16:45:14.739Z,72.20
2018-03-15T16:47:42.830Z,72.10
2018-03-15T16:50:10.093Z,72.40
2018-03-15T16:52:37.842Z,72.10
2018-03-15T16:55:06.405Z,72.40
2018-03-15T16:57:34.451Z,72.80
2018-03-15T17:00:01.808Z,72.70
2018-03-15T17:02:28.961Z,72.40
2018-03-15T17:04:56.226Z,72.20
2018-03-15T17:07:23.634Z,72.30
2018-03-15T17:09:50.733Z,72.20
2018-03-15T17:12:18.352Z,72.40
2018-03-15T17:14:46.730Z,72.20
2018-03-15T17:17:14.122Z,72.00
2018-03-15T17:19:41.684Z,71.90
2018-03-15T17:22:09.119Z,72.00
2018-03-15T17:24:36.619Z,72.30
2018-03-15T17:27:04.235Z,72.10
2018-03-15T17:29:31.601Z,72.20
2018-03-15T17:31:59.240Z,72.20
2018-03-15T17:34:25.620Z,72.40
2018-03-15T17:36:51.899Z,72.50
2018-03-15T17:39:18.242Z,72.40
2018-03-15T17:41:51.097Z,72.30
2018-03-15T17:44:17.373Z,72.20
2018-03-15T17:46:44.334Z,72.30
2018-03-15T17:49:10.617Z,72.20
2018-03-15T17:51:36.824Z,72.50
2018-03-15T17:54:10.890Z,72.80
2018-03-15T17:56:37.828Z,72.40
2018-03-15T17:59:04.051Z,72.40
2018-03-15T18:01:30.406Z,72.30
2018-03-15T18:03:57.351Z,72.20
2018-03-15T18:06:23.573Z,72.00
2018-03-15T18:08:50.568Z,72.20
2018-03-15T18:11:16.796Z,72.10
2018-03-15T18:13:43.095Z,72.10
2018-03-15T18:16:09.434Z,71.90
2018-03-15T18:18:35.650Z,72.20
2018-03-15T18:21:01.875Z,72.10
2018-03-15T18:23:28.122Z,72.30
2018-03-15T18:25:54.293Z,72.30
2018-03-15T18:28:20.657Z,72.50
2018-03-15T18:30:46.964Z,72.70
2018-03-15T18:33:13.945Z,73.10
2018-03-15T18:35:40.172Z,73.80
2018-03-15T18:38:06.358Z,73.20
2018-03-15T18:40:32.551Z,73.50
2018-03-15T18:42:58.840Z,73.90
2018-03-15T18:45:25.050Z,73.50
2018-03-15T18:47:51.272Z,73.20
2018-03-15T18:50:17.595Z,73.80
2018-03-15T18:52:43.833Z,72.70
2018-03-15T18:55:10.153Z,72.30
2018-03-15T18:57:36.401Z,71.90
2018-03-15T19:00:03.398Z,72.90
2018-03-15T19:02:30.412Z,72.40
2018-03-15T19:04:56.788Z,72.40
2018-03-15T19:07:23.050Z,72.30
2018-03-15T19:09:50.199Z,72.40
2018-03-15T19:12:16.496Z,72.40
2018-03-15T19:14:42.737Z,72.50
2018-03-15T19:17:08.942Z,72.60
2018-03-15T19:19:35.191Z,73.20
2018-03-15T19:22:01.426Z,73.80
2018-03-15T19:24:27.669Z,73.80
2018-03-15T19:26:53.886Z,74.00
2018-03-15T19:29:20.078Z,74.10
2018-03-15T19:31:46.388Z,74.50
2018-03-15T19:34:12.628Z,74.40
2018-03-15T19:36:38.820Z,74.60
2018-03-15T19:39:05.052Z,74.60
2018-03-15T19:41:32.028Z,74.40
2018-03-15T19:43:58.232Z,74.40
2018-03-15T19:46:25.250Z,73.80
2018-03-15T19:48:51.476Z,73.70
2018-03-15T19:51:17.681Z,73.90
2018-03-15T19:53:43.929Z,74.10
2018-03-15T19:56:10.112Z,74.60
2018-03-15T19:58:36.398Z,74.70
2018-03-15T20:01:03.420Z,74.60
2018-03-15T20:03:29.628Z,74.60
2018-03-15T20:05:55.874Z,75.40
2018-03-15T20:08:22.136Z,76.00
2018-03-15T20:10:48.413Z,76.60
2018-03-15T20:13:14.610Z,77.00
2018-03-15T20:15:47.013Z,77.60
2018-03-15T20:18:13.265Z,77.50
2018-03-15T20:20:39.444Z,77.60
2018-03-15T20:23:11.856Z,77.80
2018-03-15T20:25:38.102Z,77.80
2018-03-15T20:28:10.277Z,77.50
2018-03-15T20:30:36.523Z,77.80
2018-03-15T20:33:09.545Z,77.50
2018-03-15T20:35:35.746Z,77.50
2018-03-15T20:38:02.762Z,77.30
2018-03-15T20:40:34.993Z,77.30
2018-03-15T20:43:01.243Z,77.30
2018-03-15T20:45:33.538Z,77.40
2018-03-15T20:48:05.926Z,77.30
2018-03-15T20:50:33.096Z,77.00
2018-03-15T20:52:59.392Z,77.00
2018-03-15T20:55:25.604Z,77.50
2018-03-15T20:57:51.812Z,76.80
2018-03-15T21:00:18.033Z,76.60
2018-03-15T21:02:44.239Z,76.50
2018-03-15T21:05:10.431Z,76.00
2018-03-15T21:07:36.665Z,76.00
2018-03-15T21:10:02.890Z,75.70
2018-03-15T21:12:29.098Z,75.40
2018-03-15T21:14:55.306Z,75.60
2018-03-15T21:17:21.508Z,75.00
2018-03-15T21:19:47.730Z,74.70
2018-03-15T21:22:13.935Z,74.50
2018-03-15T21:24:40.138Z,73.80
2018-03-15T21:27:06.501Z,73.70
2018-03-15T21:29:32.586Z,72.90
2018-03-15T21:31:58.778Z,72.60
2018-03-15T21:34:24.986Z,71.80
2018-03-15T21:36:51.175Z,72.00
2018-03-15T21:39:17.397Z,71.70
2018-03-15T21:41:43.609Z,71.60
2018-03-15T21:44:09.788Z,71.30
2018-03-15T21:46:36.774Z,71.20
2018-03-15T21:49:03.042Z,71.10
2018-03-15T21:51:29.251Z,71.00
2018-03-15T21:53:55.467Z,70.90
2018-03-15T21:56:21.740Z,70.90
2018-03-15T21:58:47.933Z,70.90
2018-03-15T22:01:14.112Z,71.10
2018-03-15T22:03:40.337Z,71.00
2018-03-15T22:06:06.539Z,70.90
2018-03-15T22:08:33.736Z,70.70
2018-03-15T22:10:59.960Z,70.70
2018-03-15T22:13:26.127Z,70.60
2018-03-15T22:15:52.337Z,70.20
2018-03-15T22:18:18.569Z,70.20
2018-03-15T22:20:44.784Z,69.80
2018-03-15T22:23:11.032Z,70.10
2018-03-15T22:25:37.231Z,69.80
2018-03-15T22:28:03.477Z,70.00
2018-03-15T22:30:30.786Z,69.90
2018-03-15T22:32:56.984Z,69.30
2018-03-15T22:35:23.182Z,69.40
2018-03-15T22:37:49.401Z,68.90
2018-03-15T22:40:15.648Z,69.20
2018-03-15T22:42:41.834Z,69.20
2018-03-15T22:45:08.022Z,68.80
2018-03-15T22:47:34.212Z,68.40
2018-03-15T22:50:00.434Z,68.50
2018-03-15T22:52:26.736Z,68.50
2018-03-15T22:54:53.716Z,68.10
2018-03-15T22:57:19.934Z,68.10
2018-03-15T22:59:46.160Z,68.10
2018-03-15T23:02:12.392Z,68.10
2018-03-15T23:04:39.868Z,68.00
2018-03-15T23:07:07.596Z,68.40
2018-03-15T23:09:33.908Z,68.40
2018-03-15T23:12:00.883Z,69.30
2018-03-15T23:14:27.072Z,69.20
2018-03-15T23:16:53.326Z,69.70
2018-03-15T23:19:19.457Z,69.90
2018-03-15T23:21:45.698Z,69.90
2018-03-15T23:24:11.914Z,69.60
2018-03-15T23:26:38.156Z,69.20
2018-03-15T23:29:04.383Z,69.20
2018-03-15T23:31:30.608Z,68.80
2018-03-15T23:33:56.823Z,68.80
2018-03-15T23:36:23.084Z,68.70
2018-03-15T23:38:49.302Z,68.50
2018-03-15T23:41:15.535Z,68.40
2018-03-15T23:43:41.846Z,68.70
2018-03-15T23:46:08.142Z,68.90
2018-03-15T23:48:35.106Z,68.70
2018-03-15T23:51:02.106Z,68.30
2018-03-15T23:53:28.309Z,68.30
2018-03-15T23:55:54.526Z,68.10
2018-03-15T23:58:20.781Z,68.00
